Terminal Aerodrome Forecast
Issued by NWS

Home | Current Version | Previous Version | Graphics & Text | Print | Product List | Glossary On
Versions: 1 2 3 4 5 6 7 8 9 10 11 12 13 14
000
FTUS43 KMPX 011120
TAFRWF
TAF
KRWF 011120Z 0112/0212 18005KT P6SM VCSH SCT050 BKN090
     FM011300 20009KT P6SM SCT080
     FM011900 31009KT P6SM FEW050
     FM020300 VRB03KT P6SM FEW060=

USA.gov is the U.S. government's official web portal to all federal, state and local government web resources and services.